Time;durP1;ratioP1;P1;durP2;ratioP2;P2;SDS_P1;SDS_P2;PMS_P1;PMS_P2;Temp;Humidity;BMP_temperature;BMP_pressure;BME280_temperature;BME280_humidity;BME280_pressure;Samples;Min_cycle;Max_cycle;Signal;HPM_P1;HPM_P2
2022/09/22 00:01:24;;;;;;;;;;;6.30;99.90;;;-144.05;82.71;125687.94;4787563;29;19962;-83
2022/09/22 00:03:57;;;;;;;;;;;6.60;99.90;;;-144.05;82.61;125687.94;4787833;29;19921;-85
2022/09/22 00:06:31;;;;;;;;;;;6.20;99.90;;;-144.05;82.74;125687.94;4787369;29;20259;-86
2022/09/22 00:09:00;;;;;;;;;;;6.20;99.90;;;-144.05;82.97;125687.94;4787438;29;19917;-86
2022/09/22 00:11:29;;;;;;;;;;;7.00;99.90;;;-144.05;83.16;125687.94;4787757;29;19943;-85
2022/09/22 00:14:02;;;;;;;;;;;6.20;99.90;;;-144.05;83.13;125687.94;4788057;29;19965;-86
2022/09/22 00:16:38;;;;;;;;;;;6.20;99.90;;;-144.05;83.33;125687.94;4789142;29;19914;-86
2022/09/22 00:19:14;;;;;;;;;;;6.60;99.90;;;-144.05;83.24;125687.94;4787948;29;19918;-85
2022/09/22 00:21:43;;;;;;;;;;;6.20;99.90;;;-144.05;83.20;125687.94;4787935;29;20363;-87
2022/09/22 00:24:09;;;;;;;;;;;6.20;99.90;;;-144.05;83.49;125687.94;4789469;29;20000;-87
2022/09/22 00:26:37;;;;;;;;;;;6.60;99.90;;;-144.05;83.49;125687.94;4789045;29;19936;-86
2022/09/22 00:29:08;;;;;;;;;;;6.20;99.90;;;-144.05;83.56;125687.94;4790071;29;19997;-87
2022/09/22 00:31:40;;;;;;;;;;;6.30;99.90;;;-144.05;83.71;125687.94;4787576;29;19967;-85
2022/09/22 00:34:12;;;;;;;;;;;6.30;99.90;;;-144.05;83.50;125687.94;4792352;29;20095;-79
2022/09/22 00:36:37;;;;;;;;;;;6.30;99.90;;;-144.05;83.26;125687.94;4810892;29;19917;-80
2022/09/22 00:39:03;;;;;;;;;;;6.70;99.90;;;-144.05;83.27;125687.94;4791403;29;19928;-87
2022/09/22 00:41:36;;;;;;;;;;;6.60;99.90;;;-144.05;83.72;125687.94;4787862;29;20319;-87
2022/09/22 00:44:19;;;;;;;;;;;6.20;99.90;;;-144.05;83.47;125687.94;4788043;29;20278;-86
2022/09/22 00:46:53;;;;;;;;;;;6.20;99.90;;;-144.05;83.49;125687.94;4787080;30;20375;-87
2022/09/22 00:49:32;;;;;;;;;;;6.20;99.90;;;-144.05;83.49;125687.94;4787314;29;19913;-86
2022/09/22 00:52:00;;;;;;;;;;;6.20;99.90;;;-144.05;83.52;125687.94;4788960;30;19919;-87
2022/09/22 00:54:26;;;;;;;;;;;6.20;99.90;;;-144.05;83.84;125687.94;4787182;29;19913;-86
2022/09/22 00:57:15;;;;;;;;;;;6.10;99.90;;;-144.05;83.83;125687.94;4787785;29;20012;-86
2022/09/22 00:59:45;;;;;;;;;;;6.00;99.90;;;-144.05;83.97;125687.94;4787828;29;20292;-87
2022/09/22 01:02:10;;;;;;;;;;;6.00;99.90;;;-144.05;84.26;125687.94;4787480;29;20399;-87
2022/09/22 01:04:36;;;;;;;;;;;6.10;99.90;;;-144.05;84.09;125687.94;4787255;29;19942;-87
2022/09/22 01:07:04;;;;;;;;;;;6.10;99.90;;;-144.05;83.89;125687.94;4788485;29;20008;-86
2022/09/22 01:09:32;;;;;;;;;;;6.00;99.90;;;-144.05;83.72;125687.94;4788300;29;20011;-85
2022/09/22 01:12:01;;;;;;;;;;;5.90;99.90;;;-144.05;83.57;125687.94;4789094;29;19928;-87
2022/09/22 01:14:57;;;;;;;;;;;5.90;99.90;;;-144.05;83.82;125687.94;4788716;29;20307;-85
2022/09/22 01:18:09;;;;;;;;;;;5.80;99.90;;;-144.05;83.48;125687.94;4788274;30;19985;-86
2022/09/22 01:21:19;;;;;;;;;;;5.70;99.90;;;-144.05;83.76;125687.94;4787800;29;19917;-84
2022/09/22 01:24:24;;;;;;;;;;;5.60;99.90;;;-144.05;83.57;125687.94;4792408;30;19913;-86
2022/09/22 01:27:05;;;;;;;;;;;5.60;99.90;;;-144.05;83.81;125687.94;4792883;30;20362;-87
2022/09/22 01:29:44;;;;;;;;;;;5.50;99.90;;;-144.05;83.59;125687.94;4795375;29;19924;-86
2022/09/22 01:32:22;;;;;;;;;;;5.50;99.90;;;-144.05;83.64;125687.94;4793346;30;19913;-86
2022/09/22 01:35:22;;;;;;;;;;;5.40;99.90;;;-144.05;83.75;125687.94;4793913;30;19934;-85
2022/09/22 01:38:14;;;;;;;;;;;5.40;99.90;;;-144.05;83.96;125687.94;4793295;29;19924;-85
2022/09/22 01:40:56;;;;;;;;;;;5.40;99.90;;;-144.05;83.85;125687.94;4791041;29;19925;-86
2022/09/22 01:43:55;;;;;;;;;;;5.50;99.90;;;-144.05;83.62;125687.94;4790108;29;20570;-87
2022/09/22 01:47:12;;;;;;;;;;;5.40;99.90;;;-144.05;83.76;125687.94;4789175;30;19914;-87
2022/09/22 01:49:46;;;;;;;;;;;5.40;99.90;;;-144.05;83.52;125687.94;4790861;29;19913;-85
2022/09/22 01:52:22;;;;;;;;;;;5.30;99.90;;;-144.05;83.81;125687.94;4789615;29;19967;-82
2022/09/22 01:55:03;;;;;;;;;;;5.30;99.90;;;-144.05;83.73;125687.94;4789313;29;19936;-84
2022/09/22 01:57:43;;;;;;;;;;;5.30;99.90;;;-144.05;83.92;125687.94;4789647;30;19918;-85
2022/09/22 02:00:10;;;;;;;;;;;5.40;99.90;;;-144.05;84.06;125687.94;4789787;29;20019;-88
2022/09/22 02:02:59;;;;;;;;;;;5.30;99.90;;;-144.05;83.72;125687.94;4789354;29;20398;-87
2022/09/22 02:05:37;;;;;;;;;;;5.40;99.90;;;-144.05;83.49;125687.94;4789426;30;19941;-84
2022/09/22 02:08:12;;;;;;;;;;;5.40;99.90;;;-144.05;83.29;125687.94;4789505;29;19913;-84
2022/09/22 02:10:44;;;;;;;;;;;5.30;99.90;;;-144.05;83.49;125687.94;4789512;29;19940;-86
2022/09/22 02:13:10;;;;;;;;;;;5.50;99.90;;;-144.05;83.33;125687.94;4789240;30;19921;-87
2022/09/22 02:18:52;;;;;;;;;;;5.10;99.90;;;-144.05;83.32;125687.94;4790998;30;19919;-88
2022/09/22 02:21:20;;;;;;;;;;;5.10;99.90;;;-144.05;83.34;125687.94;4789345;29;19921;-87
2022/09/22 02:23:48;;;;;;;;;;;5.00;99.90;;;-144.05;83.36;125687.94;4790769;29;20347;-86
2022/09/22 02:26:22;;;;;;;;;;;5.00;99.90;;;-144.05;83.37;125687.94;4790641;29;19942;-86
2022/09/22 02:29:01;;;;;;;;;;;4.90;99.90;;;-144.05;83.69;125687.94;4791597;29;19914;-86
2022/09/22 02:31:32;;;;;;;;;;;4.90;99.90;;;-144.05;83.52;125687.94;4789413;29;19913;-87
2022/09/22 02:34:00;;;;;;;;;;;4.90;99.90;;;-144.05;83.56;125687.94;4789611;29;19913;-83
2022/09/22 02:36:45;;;;;;;;;;;4.90;99.90;;;-144.05;83.42;125687.94;4790940;29;19917;-86
2022/09/22 02:39:38;;;;;;;;;;;4.80;99.90;;;-144.05;83.41;125687.94;4789320;29;19917;-86
2022/09/22 02:42:13;;;;;;;;;;;4.80;99.90;;;-144.05;83.71;125687.94;4789526;29;19920;-90
2022/09/22 02:44:50;;;;;;;;;;;4.80;99.90;;;-144.05;83.50;125687.94;4809834;29;19921;-78
2022/09/22 02:47:31;;;;;;;;;;;4.80;99.90;;;-144.05;83.58;125687.94;4797935;29;19922;-85
2022/09/22 02:50:00;;;;;;;;;;;4.80;99.90;;;-144.05;83.66;125687.94;4803986;29;19913;-86
2022/09/22 02:52:26;;;;;;;;;;;5.10;99.90;;;-144.05;83.64;125687.94;4788430;29;20268;-87
2022/09/22 02:54:53;;;;;;;;;;;5.30;99.90;;;-144.05;83.50;125687.94;4788270;29;19928;-86
2022/09/22 02:57:19;;;;;;;;;;;4.90;99.90;;;-144.05;83.50;125687.94;4787971;29;19913;-86
2022/09/22 02:59:45;;;;;;;;;;;4.80;99.90;;;-144.05;83.67;125687.94;4788615;29;19913;-87
2022/09/22 03:02:11;;;;;;;;;;;5.00;99.90;;;-144.05;83.61;125687.94;4789382;29;20291;-86
2022/09/22 03:04:37;;;;;;;;;;;4.60;99.90;;;-144.05;83.58;125687.94;4789241;29;19921;-87
2022/09/22 03:07:05;;;;;;;;;;;4.70;99.90;;;-144.05;83.59;125687.94;4789061;30;20455;-87
2022/09/22 03:09:32;;;;;;;;;;;4.60;99.90;;;-144.05;83.69;125687.94;4789888;29;19914;-87
2022/09/22 03:11:58;;;;;;;;;;;4.70;99.90;;;-144.05;83.81;125687.94;4789126;29;20428;-86
2022/09/22 03:14:24;;;;;;;;;;;4.70;99.90;;;-144.05;83.99;125687.94;4788681;29;20194;-86
2022/09/22 03:16:50;;;;;;;;;;;4.70;99.90;;;-144.05;83.78;125687.94;4788464;30;19914;-85
2022/09/22 03:19:15;;;;;;;;;;;4.80;99.90;;;-144.05;83.83;125687.94;4790470;30;20284;-87
2022/09/22 03:21:41;;;;;;;;;;;4.80;99.90;;;-144.05;83.69;125687.94;4789364;29;19924;-87
2022/09/22 03:24:07;;;;;;;;;;;4.80;99.90;;;-144.05;83.68;125687.94;4792058;29;19921;-84
2022/09/22 03:26:33;;;;;;;;;;;4.70;99.90;;;-144.05;83.47;125687.94;4792879;29;19920;-85
2022/09/22 03:29:02;;;;;;;;;;;4.90;99.90;;;-144.05;83.57;125687.94;4790906;29;19913;-87
2022/09/22 03:31:28;;;;;;;;;;;4.60;99.90;;;-144.05;83.61;125687.94;4791545;29;19968;-87
2022/09/22 03:33:54;;;;;;;;;;;4.60;99.90;;;-144.05;83.88;125687.94;4792426;29;20335;-85
2022/09/22 03:36:23;;;;;;;;;;;4.50;99.90;;;-144.05;83.73;125687.94;4791155;29;19947;-86
2022/09/22 03:38:50;;;;;;;;;;;4.50;99.90;;;-144.05;83.63;125687.94;4790614;29;19913;-87
2022/09/22 03:41:17;;;;;;;;;;;4.50;99.90;;;-144.05;83.59;125687.94;4790027;29;19913;-86
2022/09/22 03:43:43;;;;;;;;;;;4.40;99.90;;;-144.05;83.63;125687.94;4790754;29;20350;-85
2022/09/22 03:46:09;;;;;;;;;;;4.50;99.90;;;-144.05;83.66;125687.94;4790196;29;19913;-87
2022/09/22 03:48:35;;;;;;;;;;;4.40;99.90;;;-144.05;83.86;125687.94;4790578;29;19979;-84
2022/09/22 03:51:01;;;;;;;;;;;4.40;99.90;;;-144.05;83.98;125687.94;4790079;29;19996;-85
2022/09/22 03:53:27;;;;;;;;;;;4.60;99.90;;;-144.05;83.93;125687.94;4790531;29;19914;-87
2022/09/22 03:56:11;;;;;;;;;;;4.50;99.90;;;-144.05;83.92;125687.94;4792224;29;19917;-88
2022/09/22 03:58:38;;;;;;;;;;;4.70;99.90;;;-144.05;83.81;125687.94;4789709;30;20543;-86
2022/09/22 04:01:06;;;;;;;;;;;4.50;99.90;;;-144.05;83.95;125687.94;4790194;29;20170;-84
2022/09/22 04:03:33;;;;;;;;;;;4.60;99.90;;;-144.05;83.86;125687.94;4790932;29;19956;-87
2022/09/22 04:06:00;;;;;;;;;;;4.20;99.90;;;-144.05;83.71;125687.94;4790622;29;19920;-88
2022/09/22 04:08:26;;;;;;;;;;;4.30;99.90;;;-144.05;83.83;125687.94;4790964;29;19982;-86
2022/09/22 04:10:53;;;;;;;;;;;4.60;99.90;;;-144.05;83.91;125687.94;4790410;29;19923;-84
2022/09/22 04:13:19;;;;;;;;;;;4.20;99.90;;;-144.05;83.90;125687.94;4791481;29;20351;-84
2022/09/22 04:15:45;;;;;;;;;;;4.20;99.90;;;-144.05;83.74;125687.94;4790272;29;19918;-85
2022/09/22 04:18:13;;;;;;;;;;;4.60;99.90;;;-144.05;83.77;125687.94;4790364;29;19913;-87
2022/09/22 04:20:43;;;;;;;;;;;4.30;99.90;;;-144.05;83.86;125687.94;4790339;29;19917;-86
2022/09/22 04:30:31;;;;;;;;;;;4.30;99.90;;;-144.05;83.82;125687.94;4784985;29;20459;-88
2022/09/22 04:33:39;;;;;;;;;;;;;;;;;;;;;
2022/09/22 04:40:39;;;;;;;;;;;4.20;99.90;;;-144.05;83.89;125687.94;4792423;29;19913;-88
2022/09/22 04:48:15;;;;;;;;;;;;;;;;;;;;;
2022/09/22 04:54:37;;;;;;;;;;;4.20;99.90;;;-144.05;83.84;125687.94;4805463;29;19922;-88
2022/09/22 04:58:10;;;;;;;;;;;;;;;;;;;;;
2022/09/22 05:00:02;;;;;;;;;;;4.00;99.90;;;-144.05;84.04;125687.94;4827770;24;20035;-84
2022/09/22 05:02:28;;;;;;;;;;;4.10;99.90;;;-144.05;84.41;125687.94;4794608;29;19961;-81
2022/09/22 05:04:54;;;;;;;;;;;4.10;99.90;;;-144.05;84.23;125687.94;4793374;30;19921;-80
2022/09/22 05:07:20;;;;;;;;;;;4.10;99.90;;;-144.05;84.38;125687.94;4793706;29;19953;-79
2022/09/22 05:09:46;;;;;;;;;;;4.20;99.90;;;-144.05;84.29;125687.94;4795567;29;19949;-80
2022/09/22 05:12:12;;;;;;;;;;;4.20;99.90;;;-144.05;84.64;125687.94;4793837;29;19913;-81
2022/09/22 05:14:38;;;;;;;;;;;4.30;99.90;;;-144.05;84.53;125687.94;4793653;30;19990;-81
2022/09/22 05:17:04;;;;;;;;;;;4.30;99.90;;;-144.05;84.51;125687.94;4793353;29;19913;-80
2022/09/22 05:19:31;;;;;;;;;;;4.30;99.90;;;-144.05;84.50;125687.94;4794541;29;19939;-82
2022/09/22 05:21:57;;;;;;;;;;;4.40;99.90;;;-144.05;84.48;125687.94;4793631;29;19913;-80
2022/09/22 05:24:22;;;;;;;;;;;4.40;99.90;;;-144.05;84.53;125687.94;4793542;30;19925;-81
2022/09/22 05:26:49;;;;;;;;;;;4.40;99.90;;;-144.05;84.63;125687.94;4794568;29;19940;-82
2022/09/22 05:29:17;;;;;;;;;;;4.40;99.90;;;-144.05;84.64;125687.94;4793689;29;19913;-80
2022/09/22 05:31:44;;;;;;;;;;;4.40;99.90;;;-144.05;84.89;125687.94;4794658;29;19920;-81
2022/09/22 05:34:11;;;;;;;;;;;4.50;99.90;;;-144.05;84.76;125687.94;4792212;30;19933;-81
2022/09/22 05:36:37;;;;;;;;;;;4.50;99.90;;;-144.05;84.74;125687.94;4793165;29;19918;-83
2022/09/22 05:39:04;;;;;;;;;;;4.50;99.90;;;-144.05;84.86;125687.94;4793451;29;19914;-80
2022/09/22 05:41:29;;;;;;;;;;;4.60;99.90;;;-144.05;84.81;125687.94;4793351;29;19948;-80
2022/09/22 05:43:55;;;;;;;;;;;4.70;99.90;;;-144.05;84.52;125687.94;4792307;30;19921;-79
2022/09/22 05:46:21;;;;;;;;;;;4.70;99.90;;;-144.05;84.78;125687.94;4792826;29;19913;-79
2022/09/22 05:48:47;;;;;;;;;;;4.70;99.90;;;-144.05;85.02;125687.94;4794189;29;19917;-82
2022/09/22 05:51:12;;;;;;;;;;;4.80;99.90;;;-144.05;84.99;125687.94;4794634;29;19956;-80
2022/09/22 05:53:38;;;;;;;;;;;5.00;99.90;;;-144.05;85.31;125687.94;4792674;29;19990;-81
2022/09/22 05:56:04;;;;;;;;;;;5.00;99.90;;;-144.05;85.22;125687.94;4791627;29;19975;-79
2022/09/22 05:58:30;;;;;;;;;;;5.20;99.90;;;-144.05;84.92;125687.94;4792415;29;19913;-78
2022/09/22 06:00:59;;;;;;;;;;;5.40;99.90;;;-144.05;85.03;125687.94;4792361;29;19963;-79
2022/09/22 06:03:25;;;;;;;;;;;5.50;99.90;;;-144.05;85.01;125687.94;4792943;29;19914;-80
2022/09/22 06:05:51;;;;;;;;;;;5.60;99.90;;;-144.05;85.04;125687.94;4791305;29;20110;-80
2022/09/22 06:08:17;;;;;;;;;;;5.80;99.90;;;-144.05;85.10;125687.94;4791262;29;19949;-83
2022/09/22 06:10:44;;;;;;;;;;;5.90;99.90;;;-144.05;84.84;125687.94;4791463;29;19967;-80
2022/09/22 06:13:11;;;;;;;;;;;6.10;99.90;;;-144.05;84.64;125687.94;4792542;29;19921;-81
2022/09/22 06:15:38;;;;;;;;;;;6.30;99.90;;;-144.05;84.61;125687.94;4790662;29;19917;-80
2022/09/22 06:18:10;;;;;;;;;;;6.40;99.90;;;-144.05;84.45;125687.94;4791115;29;20374;-80
2022/09/22 06:20:37;;;;;;;;;;;6.60;99.90;;;-144.05;84.64;125687.94;4790405;29;19914;-80
2022/09/22 06:23:03;;;;;;;;;;;6.70;99.90;;;-144.05;85.06;125687.94;4790902;30;20294;-81
2022/09/22 06:25:29;;;;;;;;;;;6.90;99.90;;;-144.05;84.77;125687.94;4803058;29;19917;-80
2022/09/22 06:28:04;;;;;;;;;;;7.10;99.90;;;-144.05;84.62;125687.94;4808510;29;19939;-81
2022/09/22 06:30:37;;;;;;;;;;;7.40;99.90;;;-144.05;83.34;125687.94;4805748;29;19921;-82
2022/09/22 06:33:03;;;;;;;;;;;7.60;99.90;;;-144.05;83.46;125687.94;4801789;29;19913;-82
2022/09/22 06:35:35;;;;;;;;;;;8.00;99.90;;;-144.05;83.34;125687.94;4794159;29;20012;-82
2022/09/22 06:38:01;;;;;;;;;;;8.30;99.90;;;-144.05;80.87;125687.94;4791447;29;19924;-81
2022/09/22 06:40:27;;;;;;;;;;;8.40;99.90;;;-144.05;80.79;125687.94;4789572;30;19917;-82
2022/09/22 06:43:10;;;;;;;;;;;8.70;99.90;;;-144.05;78.45;125687.94;4789656;30;19964;-80
2022/09/22 06:45:38;;;;;;;;;;;9.00;99.90;;;-144.05;76.89;125687.94;4790104;29;19913;-80
2022/09/22 06:48:03;;;;;;;;;;;9.20;99.90;;;-144.05;74.62;125687.94;4789408;29;20339;-81
2022/09/22 06:50:31;;;;;;;;;;;9.50;99.90;;;-144.05;72.60;125687.94;4789939;30;19913;-80
2022/09/22 06:53:03;;;;;;;;;;;9.60;99.90;;;-144.05;71.39;125687.94;4791071;29;19913;-82
2022/09/22 06:55:30;;;;;;;;;;;9.90;99.90;;;-144.05;69.85;125687.94;4789945;29;19929;-80
2022/09/22 06:57:57;;;;;;;;;;;10.10;99.90;;;-144.05;68.82;125687.94;4791888;29;19913;-80
2022/09/22 07:00:29;;;;;;;;;;;10.30;99.90;;;-144.05;67.99;125687.94;4797187;29;19925;-82
2022/09/22 07:03:12;;;;;;;;;;;10.60;99.90;;;-144.05;67.19;125687.94;4790271;29;19914;-81
2022/09/22 07:05:38;;;;;;;;;;;10.80;99.90;;;-144.05;66.76;125687.94;4789347;29;20289;-80
2022/09/22 07:08:04;;;;;;;;;;;11.10;99.90;;;-144.05;65.71;125687.94;4790376;29;20362;-80
2022/09/22 07:10:36;;;;;;;;;;;11.30;99.90;;;-144.05;65.15;125687.94;4790686;29;20394;-82
2022/09/22 07:13:04;;;;;;;;;;;11.50;99.90;;;-144.05;64.91;125687.94;4791544;29;19949;-80
2022/09/22 07:15:32;;;;;;;;;;;11.70;99.90;;;-144.05;64.23;125687.94;4790120;29;20024;-80
2022/09/22 07:17:58;;;;;;;;;;;12.00;99.90;;;-144.05;63.70;125687.94;4790571;29;19924;-81
2022/09/22 07:20:24;;;;;;;;;;;12.20;99.90;;;-144.05;63.11;125687.94;4790450;29;20401;-81
2022/09/22 07:22:59;;;;;;;;;;;12.30;99.90;;;-144.05;62.71;125687.94;4792100;29;20424;-81
2022/09/22 07:25:34;;;;;;;;;;;12.50;99.90;;;-144.05;61.74;125687.94;4792528;29;19913;-81
2022/09/22 07:28:03;;;;;;;;;;;12.80;99.90;;;-144.05;61.62;125687.94;4805883;29;19946;-81
2022/09/22 07:30:30;;;;;;;;;;;13.00;99.90;;;-144.05;61.38;125687.94;4791907;29;19913;-81
2022/09/22 07:32:56;;;;;;;;;;;13.30;99.90;;;-144.05;60.14;125687.94;4792106;29;19917;-81
2022/09/22 07:35:22;;;;;;;;;;;13.50;99.90;;;-144.05;60.58;125687.94;4790141;29;19968;-79
2022/09/22 07:37:55;;;;;;;;;;;13.60;99.90;;;-144.05;59.87;125687.94;4791254;29;19917;-80
2022/09/22 07:40:21;;;;;;;;;;;13.80;99.90;;;-144.05;59.77;125687.94;4790101;29;19917;-81
2022/09/22 07:42:48;;;;;;;;;;;13.90;99.90;;;-144.05;59.26;125687.94;4791826;29;19920;-80
2022/09/22 07:45:14;;;;;;;;;;;14.10;99.90;;;-144.05;58.83;125687.94;4791403;29;20012;-80
2022/09/22 07:50:29;;;;;;;;;;;14.20;99.90;;;-144.05;57.92;125687.94;4792167;30;19924;-81
2022/09/22 07:52:55;;;;;;;;;;;14.40;99.90;;;-144.05;57.13;125687.94;4792116;29;19929;-80
2022/09/22 07:55:23;;;;;;;;;;;14.50;99.90;;;-144.05;56.36;125687.94;4791627;29;19924;-81
2022/09/22 07:57:58;;;;;;;;;;;14.70;99.90;;;-144.05;56.08;125687.94;4790280;29;20333;-83
2022/09/22 08:00:31;;;;;;;;;;;14.90;99.90;;;-144.05;55.35;125687.94;4792173;29;20008;-81
2022/09/22 08:02:57;;;;;;;;;;;15.00;99.90;;;-144.05;54.75;125687.94;4792505;29;19913;-80
2022/09/22 08:05:26;;;;;;;;;;;15.20;99.90;;;-144.05;53.89;125687.94;4793109;29;20343;-80
2022/09/22 08:07:57;;;;;;;;;;;15.40;99.90;;;-144.05;54.19;125687.94;4792550;29;19956;-79
2022/09/22 08:10:23;;;;;;;;;;;15.50;99.90;;;-144.05;53.08;125687.94;4790478;29;19924;-80
2022/09/22 08:12:56;;;;;;;;;;;15.60;99.90;;;-144.05;52.93;125687.94;4792087;29;20006;-81
2022/09/22 08:15:22;;;;;;;;;;;15.90;99.90;;;-144.05;53.11;125687.94;4792214;29;20378;-81
2022/09/22 08:17:49;;;;;;;;;;;16.20;99.90;;;-144.05;51.92;125687.94;4790985;29;19925;-80
2022/09/22 08:20:15;;;;;;;;;;;16.40;99.90;;;-144.05;51.33;125687.94;4792534;29;19913;-80
2022/09/22 08:22:42;;;;;;;;;;;16.70;99.90;;;-144.05;49.31;125687.94;4794100;29;19924;-82
2022/09/22 08:25:11;;;;;;;;;;;16.80;99.90;;;-144.05;49.18;125687.94;4794347;29;19913;-81
2022/09/22 08:27:38;;;;;;;;;;;17.00;99.90;;;-144.05;48.43;125687.94;4793366;29;19996;-81
2022/09/22 08:30:06;;;;;;;;;;;17.20;99.90;;;-144.05;47.31;125687.94;4793358;29;19913;-80
2022/09/22 08:32:34;;;;;;;;;;;17.30;99.90;;;-144.05;48.25;125687.94;4797255;29;20019;-81
2022/09/22 08:35:03;;;;;;;;;;;17.40;99.90;;;-144.05;47.15;125687.94;4797594;29;20293;-81
2022/09/22 08:37:31;;;;;;;;;;;17.50;99.90;;;-144.05;47.49;125687.94;4797498;29;20016;-81
2022/09/22 08:39:57;;;;;;;;;;;17.70;99.90;;;-144.05;46.64;125687.94;4797838;29;19938;-82
2022/09/22 08:42:27;;;;;;;;;;;17.80;99.90;;;-144.05;45.78;125687.94;4797922;29;19926;-81
2022/09/22 08:45:37;;;;;;;;;;;18.00;99.90;;;-144.05;45.73;125687.94;4798065;29;19959;-80
2022/09/22 08:54:10;;;;;;;;;;;18.30;99.90;;;-144.05;44.43;125687.94;4797294;30;19943;-82
2022/09/22 08:56:56;;;;;;;;;;;18.40;99.90;;;-144.05;44.14;125687.94;4798688;29;19976;-82
2022/09/22 08:59:52;;;;;;;;;;;18.70;99.90;;;-144.05;43.04;125687.94;4797482;29;20514;-82
2022/09/22 09:02:34;;;;;;;;;;;18.70;99.90;;;-144.05;43.02;125687.94;4797925;29;20008;-81
2022/09/22 09:05:41;;;;;;;;;;;18.90;99.90;;;-144.05;42.91;125687.94;4795715;29;20290;-82
2022/09/22 09:08:51;;;;;;;;;;;19.00;99.90;;;-144.05;41.81;125687.94;4795416;29;20297;-81
2022/09/22 09:12:09;;;;;;;;;;;19.20;99.90;;;-144.05;40.82;125687.94;4796338;29;19920;-80
2022/09/22 09:15:00;;;;;;;;;;;19.20;99.90;;;-144.05;41.31;125687.94;4797243;30;19920;-81
2022/09/22 09:17:34;;;;;;;;;;;19.40;99.90;;;-144.05;40.80;125687.94;4798677;29;20266;-82
2022/09/22 09:20:45;;;;;;;;;;;19.70;99.90;;;-144.05;38.47;125687.94;4798235;29;19973;-82
2022/09/22 09:23:30;;;;;;;;;;;19.80;99.90;;;-144.05;38.62;125687.94;4802959;29;19913;-83
2022/09/22 09:25:57;;;;;;;;;;;20.00;99.90;;;-144.05;37.63;125687.94;4802800;29;19914;-83
2022/09/22 09:28:41;;;;;;;;;;;20.10;99.90;;;-144.05;38.13;125687.94;4802846;29;19914;-82
2022/09/22 09:31:45;;;;;;;;;;;20.10;99.90;;;-144.05;38.79;125687.94;4806549;29;19965;-82
2022/09/22 09:34:16;;;;;;;;;;;20.30;99.90;;;-144.05;37.51;125687.94;4805298;29;19902;-83
2022/09/22 09:36:51;;;;;;;;;;;20.40;99.90;;;-144.05;36.94;125687.94;4803138;29;19917;-82
2022/09/22 09:39:31;;;;;;;;;;;20.60;99.90;;;-144.05;36.65;125687.94;4796892;29;19984;-81
2022/09/22 09:42:01;;;;;;;;;;;20.70;99.90;;;-144.05;36.94;125687.94;4795003;29;20303;-82
2022/09/22 09:44:28;;;;;;;;;;;20.90;99.90;;;-144.05;36.23;125687.94;4800425;29;20305;-80
2022/09/22 09:47:21;;;;;;;;;;;20.70;99.90;;;-144.05;36.16;125687.94;4792690;29;19936;-82
2022/09/22 09:49:50;;;;;;;;;;;20.60;99.90;;;-144.05;35.66;125687.94;4792013;30;20382;-80
2022/09/22 09:52:16;;;;;;;;;;;20.70;99.90;;;-144.05;35.23;125687.94;4792155;29;19913;-81
2022/09/22 09:54:46;;;;;;;;;;;20.90;99.90;;;-144.05;35.52;125687.94;4793753;29;20393;-80
2022/09/22 09:57:15;;;;;;;;;;;20.90;99.90;;;-144.05;35.40;125687.94;4793859;29;19924;-79
2022/09/22 10:03:01;;;;;;;;;;;20.90;99.90;;;-144.05;34.60;125687.94;4793756;30;19924;-79
2022/09/22 10:05:30;;;;;;;;;;;20.80;99.90;;;-144.05;34.58;125687.94;4793539;30;19914;-82
2022/09/22 10:08:02;;;;;;;;;;;20.90;99.90;;;-144.05;34.73;125687.94;4792778;29;19913;-80
2022/09/22 10:10:27;;;;;;;;;;;20.90;99.90;;;-144.05;34.92;125687.94;4791257;29;19913;-82
2022/09/22 10:13:43;;;;;;;;;;;21.00;99.90;;;-144.05;34.87;125687.94;4792150;29;19970;-82
2022/09/22 10:16:23;;;;;;;;;;;21.00;99.90;;;-144.05;34.95;125687.94;4785110;30;19948;-82
2022/09/22 10:19:29;;;;;;;;;;;20.90;99.90;;;-144.05;34.73;125687.94;4793072;29;19948;-83
2022/09/22 10:22:26;;;;;;;;;;;21.10;99.90;;;-144.05;34.05;125687.94;4793223;29;19914;-81
2022/09/22 10:24:58;;;;;;;;;;;21.20;99.90;;;-144.05;32.61;125687.94;4790627;30;20022;-83
2022/09/22 10:27:27;;;;;;;;;;;21.40;98.40;;;-144.05;33.18;125687.94;4792413;29;19913;-82
2022/09/22 10:30:20;;;;;;;;;;;21.70;99.20;;;-144.05;33.30;125687.94;4792290;29;19913;-80
2022/09/22 10:33:20;;;;;;;;;;;21.70;98.10;;;-144.05;31.67;125687.94;4792317;30;19944;-81
2022/09/22 10:36:03;;;;;;;;;;;22.00;96.20;;;-144.05;32.60;125687.94;4794454;30;19918;-81
2022/09/22 10:38:36;;;;;;;;;;;22.10;96.90;;;-144.05;31.33;125687.94;4791113;29;19913;-80
2022/09/22 10:41:09;;;;;;;;;;;22.30;94.90;;;-144.05;30.75;125687.94;4792112;29;19913;-82
2022/09/22 10:44:00;;;;;;;;;;;22.40;93.50;;;-144.05;30.22;125687.94;4791264;29;20007;-81
2022/09/22 10:46:56;;;;;;;;;;;22.60;91.80;;;-144.05;31.08;125687.94;4790949;30;19942;-80
2022/09/22 10:50:15;;;;;;;;;;;22.60;92.80;;;-144.05;29.25;125687.94;4796567;29;19913;-80
2022/09/22 10:53:01;;;;;;;;;;;22.40;86.30;;;-144.05;29.76;125687.94;4793700;29;20281;-82
2022/09/22 10:55:51;;;;;;;;;;;22.10;86.90;;;-144.05;30.80;125687.94;4801641;30;19917;-82
2022/09/22 10:58:37;;;;;;;;;;;21.80;90.00;;;-144.05;29.63;125687.94;4799713;29;19913;-80
2022/09/22 11:01:47;;;;;;;;;;;21.90;86.20;;;-144.05;30.69;125687.94;4793526;29;19917;-82
2022/09/22 11:04:46;;;;;;;;;;;21.50;87.30;;;-144.05;31.67;125687.94;4794025;29;19952;-82
2022/09/22 11:13:55;;;;;;;;;;;20.60;90.50;;;-144.05;33.01;125687.94;4792166;30;19921;-82
2022/09/22 11:17:18;;;;;;;;;;;19.90;91.50;;;-144.05;33.31;125687.94;4791582;29;19963;-80
2022/09/22 11:19:47;;;;;;;;;;;19.40;92.60;;;-144.05;34.63;125687.94;4811473;24;19920;-78
2022/09/22 11:22:30;;;;;;;;;;;19.30;94.30;;;-144.05;34.59;125687.94;4788598;29;19974;-79
2022/09/22 11:25:10;;;;;;;;;;;19.70;93.90;;;-144.05;32.78;125687.94;4801397;30;19913;-80
2022/09/22 11:27:56;;;;;;;;;;;20.20;92.60;;;-144.05;31.99;125687.94;4791058;30;19914;-80
2022/09/22 11:30:22;;;;;;;;;;;20.30;92.10;;;-144.05;32.40;125687.94;4802794;29;20319;-79
2022/09/22 11:33:27;;;;;;;;;;;20.40;91.80;;;-144.05;31.76;125687.94;4789490;29;19913;-80
2022/09/22 11:36:14;;;;;;;;;;;20.80;92.30;;;-144.05;30.46;125687.94;4787902;30;19930;-77
2022/09/22 11:38:50;;;;;;;;;;;21.50;89.60;;;-144.05;31.27;125687.94;4792120;30;20024;-78
2022/09/22 11:41:48;;;;;;;;;;;22.10;92.00;;;-144.05;29.57;125687.94;4789435;29;19981;-80
2022/09/22 11:44:29;;;;;;;;;;;22.10;86.30;;;-144.05;30.54;125687.94;4788799;29;20275;-79
2022/09/22 11:47:35;;;;;;;;;;;21.80;88.60;;;-144.05;30.77;125687.94;4788894;30;19913;-78
2022/09/22 11:50:16;;;;;;;;;;;21.60;85.60;;;-144.05;29.88;125687.94;4787262;29;19920;-78
2022/09/22 11:53:08;;;;;;;;;;;21.90;85.10;;;-144.05;29.38;125687.94;4788522;29;20414;-79
2022/09/22 11:56:02;;;;;;;;;;;22.10;82.30;;;-144.05;29.08;125687.94;4789908;29;19913;-79
2022/09/22 11:58:32;;;;;;;;;;;22.00;81.20;;;-144.05;30.92;125687.94;4788737;29;20016;-78
2022/09/22 12:01:10;;;;;;;;;;;21.50;88.00;;;-144.05;32.22;125687.94;4788625;29;19914;-80
2022/09/22 12:04:03;;;;;;;;;;;21.00;90.50;;;-144.05;31.41;125687.94;4788695;29;19925;-81
2022/09/22 12:06:40;;;;;;;;;;;20.60;88.10;;;-144.05;33.11;125687.94;4786570;29;20019;-77
2022/09/22 12:09:29;;;;;;;;;;;20.30;91.00;;;-144.05;32.66;125687.94;4787894;29;19913;-79
2022/09/22 12:11:57;;;;;;;;;;;20.30;91.60;;;-144.05;32.27;125687.94;4789476;29;19952;-81
2022/09/22 12:14:26;;;;;;;;;;;20.80;90.20;;;-144.05;32.16;125687.94;4788637;29;20353;-79
2022/09/22 12:17:29;;;;;;;;;;;21.30;90.50;;;-144.05;31.35;125687.94;4786757;30;19913;-79
2022/09/22 12:20:28;;;;;;;;;;;21.50;87.30;;;-144.05;32.19;125687.94;4791707;29;19947;-81